Time;durP1;ratioP1;P1;durP2;ratioP2;P2;SDS_P1;SDS_P2;PMS_P1;PMS_P2;Temp;Humidity;BMP_temperature;BMP_pressure;BME280_temperature;BME280_humidity;BME280_pressure;Samples;Min_cycle;Max_cycle;Signal;HPM_P1;HPM_P2
2022/10/31 00:00:47;;;;;;;44.10;19.27;;;;;;;8.98;100.00;100231.63;4172008;28;22881;-68
2022/10/31 00:03:14;;;;;;;37.20;18.17;;;;;;;8.98;100.00;100226.31;4179715;28;20238;-67
2022/10/31 00:05:42;;;;;;;41.40;17.13;;;;;;;9.01;100.00;100234.00;4167692;28;21340;-67
2022/10/31 00:08:08;;;;;;;28.20;16.00;;;;;;;9.11;100.00;100237.50;4156933;28;22919;-68
2022/10/31 00:10:38;;;;;;;33.73;17.77;;;;;;;9.08;100.00;100237.75;4196592;28;20317;-67
2022/10/31 00:13:04;;;;;;;47.87;23.93;;;;;;;8.99;100.00;100238.59;4169479;28;21319;-67
2022/10/31 00:15:33;;;;;;;52.50;25.20;;;;;;;8.96;100.00;100246.84;4166164;28;20237;-69
2022/10/31 00:17:59;;;;;;;50.77;23.10;;;;;;;8.88;100.00;100240.44;4165796;28;21058;-67
2022/10/31 00:20:26;;;;;;;48.83;21.20;;;;;;;8.84;100.00;100239.03;4172158;28;21194;-67
2022/10/31 00:22:53;;;;;;;40.90;19.77;;;;;;;8.82;100.00;100240.13;4165357;28;20234;-72
2022/10/31 00:25:20;;;;;;;39.67;18.43;;;;;;;8.79;100.00;100233.28;4166087;28;20238;-67
2022/10/31 00:27:47;;;;;;;37.37;18.50;;;;;;;8.75;100.00;100237.19;4185745;28;22205;-67
2022/10/31 00:30:13;;;;;;;35.50;16.77;;;;;;;8.73;100.00;100243.63;4167061;28;20338;-66
2022/10/31 00:32:40;;;;;;;31.67;16.97;;;;;;;8.74;100.00;100237.34;4162925;28;20466;-67
2022/10/31 00:35:07;;;;;;;41.77;18.40;;;;;;;8.73;100.00;100244.44;4170611;28;20231;-67
2022/10/31 00:37:33;;;;;;;41.37;18.40;;;;;;;8.66;100.00;100243.31;4166312;28;20238;-67
2022/10/31 00:39:59;;;;;;;40.37;18.30;;;;;;;8.62;100.00;100245.44;4157866;28;20247;-68
2022/10/31 00:42:26;;;;;;;32.37;16.33;;;;;;;8.57;100.00;100244.13;4170612;28;20649;-67
2022/10/31 00:44:52;;;;;;;34.17;18.30;;;;;;;8.57;100.00;100244.13;4174998;28;20230;-66
2022/10/31 00:47:19;;;;;;;37.30;17.80;;;;;;;8.49;100.00;100249.31;4168071;28;21767;-68
2022/10/31 00:49:45;;;;;;;38.03;16.87;;;;;;;8.42;100.00;100247.19;4167629;28;20239;-68
2022/10/31 00:52:12;;;;;;;37.70;19.37;;;;;;;8.41;100.00;100250.81;4171607;28;20260;-65
2022/10/31 00:54:38;;;;;;;38.00;18.03;;;;;;;8.46;100.00;100250.41;4174956;28;20246;-68
2022/10/31 00:57:05;;;;;;;33.03;18.07;;;;;;;8.36;100.00;100250.38;4170750;28;21067;-67
2022/10/31 00:59:31;;;;;;;32.97;18.20;;;;;;;8.39;100.00;100249.25;4170997;28;20534;-68
2022/10/31 01:01:58;;;;;;;43.60;18.23;;;;;;;8.38;100.00;100244.91;4166804;28;22417;-67
2022/10/31 01:04:25;;;;;;;36.13;18.20;;;;;;;8.38;100.00;100245.78;4170343;28;20241;-67
2022/10/31 01:06:51;;;;;;;35.20;17.27;;;;;;;8.35;100.00;100239.88;4165671;28;20235;-65
2022/10/31 01:09:18;;;;;;;32.83;17.47;;;;;;;8.31;100.00;100241.13;4184609;28;20236;-68
2022/10/31 01:11:44;;;;;;;34.53;18.53;;;;;;;8.29;100.00;100241.28;4168221;28;20897;-67
2022/10/31 01:14:10;;;;;;;39.47;17.73;;;;;;;8.31;100.00;100249.06;4166224;28;20234;-67
2022/10/31 01:16:37;;;;;;;36.80;17.90;;;;;;;8.27;100.00;100248.53;4171001;28;20227;-67
2022/10/31 01:19:03;;;;;;;32.63;17.10;;;;;;;8.27;100.00;100253.81;4168147;28;20357;-68
2022/10/31 01:21:30;;;;;;;34.60;17.37;;;;;;;8.25;100.00;100245.16;4165208;28;20318;-66
2022/10/31 01:23:57;;;;;;;34.87;17.40;;;;;;;8.25;100.00;100250.47;4170431;28;20316;-67
2022/10/31 01:26:26;;;;;;;39.07;19.10;;;;;;;8.25;100.00;100253.13;4169844;28;20400;-66
2022/10/31 01:28:55;;;;;;;33.43;17.73;;;;;;;8.27;100.00;100247.69;4167391;28;20238;-67
2022/10/31 01:31:25;;;;;;;36.90;18.97;;;;;;;8.23;100.00;100247.09;4167449;28;20241;-66
2022/10/31 01:33:51;;;;;;;39.63;19.00;;;;;;;8.20;100.00;100250.03;4166915;28;20563;-67
2022/10/31 01:36:23;;;;;;;33.07;17.60;;;;;;;8.19;100.00;100253.63;4172518;28;20416;-66
2022/10/31 01:38:53;;;;;;;40.10;19.57;;;;;;;8.10;100.00;100251.78;4171208;28;23816;-65
2022/10/31 01:41:22;;;;;;;36.60;19.13;;;;;;;8.12;100.00;100255.16;4190330;28;20667;-68
2022/10/31 01:43:57;;;;;;;40.00;19.33;;;;;;;8.07;100.00;100252.06;4196323;28;20275;-65
2022/10/31 01:46:26;;;;;;;37.83;19.40;;;;;;;8.08;100.00;100253.72;4164807;28;20687;-68
2022/10/31 01:48:54;;;;;;;44.80;20.10;;;;;;;8.02;100.00;100253.28;4168505;28;20238;-67
2022/10/31 01:51:24;;;;;;;38.37;19.27;;;;;;;8.02;100.00;100253.28;4179776;28;20317;-68
2022/10/31 01:53:54;;;;;;;38.83;20.87;;;;;;;8.00;100.00;100251.75;4165662;28;22959;-68
2022/10/31 01:56:21;;;;;;;45.73;22.57;;;;;;;8.01;100.00;100253.44;4159885;28;20518;-68
2022/10/31 01:58:47;;;;;;;38.07;20.37;;;;;;;8.01;100.00;100248.16;4179399;28;20241;-67
2022/10/31 02:01:16;;;;;;;41.27;21.70;;;;;;;7.98;100.00;100251.91;4163007;28;24404;-67
2022/10/31 02:03:43;;;;;;;38.77;20.80;;;;;;;8.04;100.00;100246.06;4164400;28;23856;-67
2022/10/31 02:06:18;;;;;;;39.13;20.33;;;;;;;8.01;100.00;100248.16;4163626;28;21308;-67
2022/10/31 02:08:45;;;;;;;33.80;18.80;;;;;;;7.97;100.00;100247.56;4167939;28;21621;-66
2022/10/31 02:11:11;;;;;;;35.40;20.37;;;;;;;7.96;100.00;100242.38;4155381;28;20242;-67
2022/10/31 02:13:38;;;;;;;37.03;20.03;;;;;;;7.97;100.00;100250.22;4161139;28;21016;-66
2022/10/31 02:16:05;;;;;;;37.50;19.73;;;;;;;7.92;100.00;100243.66;4165774;28;20280;-65
2022/10/31 02:18:31;;;;;;;33.53;18.67;;;;;;;7.92;100.00;100246.28;4168102;28;23202;-67
2022/10/31 02:21:20;;;;;;;46.07;25.03;;;;;;;7.91;100.00;100247.25;4166959;28;20271;-66
2022/10/31 02:24:17;;;;;;;46.77;22.57;;;;;;;7.88;100.00;100242.22;4162132;28;21246;-66
2022/10/31 02:26:56;;;;;;;40.20;21.70;;;;;;;7.91;100.00;100239.31;4169903;28;20300;-66
2022/10/31 02:29:59;;;;;;;40.37;21.57;;;;;;;7.88;100.00;100242.22;4169592;28;20429;-67
2022/10/31 02:32:47;;;;;;;38.30;20.80;;;;;;;7.86;100.00;100244.16;4179575;28;20230;-67
2022/10/31 02:35:22;;;;;;;38.40;20.80;;;;;;;7.86;100.00;100250.28;4170275;28;20692;-68
2022/10/31 02:38:13;;;;;;;38.77;22.00;;;;;;;7.89;100.00;100250.06;4168863;28;20315;-68
2022/10/31 02:40:49;;;;;;;47.70;22.27;;;;;;;7.83;100.00;100247.91;4189224;28;20986;-67
2022/10/31 02:43:31;;;;;;;40.63;19.77;;;;;;;7.83;100.00;100237.31;4157854;28;20226;-67
2022/10/31 02:46:05;;;;;;;34.90;20.27;;;;;;;7.93;100.00;100251.44;4175165;28;21756;-66
2022/10/31 02:48:35;;;;;;;41.03;21.13;;;;;;;7.95;100.00;100249.50;4168295;28;20384;-67
2022/10/31 02:51:03;;;;;;;39.27;21.57;;;;;;;8.02;100.00;100257.75;4161925;28;20251;-66
2022/10/31 02:53:33;;;;;;;40.60;20.40;;;;;;;8.06;100.00;100255.69;4157899;28;20343;-68
2022/10/31 02:56:12;;;;;;;39.83;19.97;;;;;;;8.08;100.00;100257.25;4163001;28;21348;-67
2022/10/31 02:59:00;;;;;;;39.70;19.23;;;;;;;8.13;100.00;100257.69;4161067;28;20317;-67
2022/10/31 03:01:37;;;;;;;38.13;18.47;;;;;;;8.17;100.00;100263.53;4166472;28;20408;-68
2022/10/31 03:04:29;;;;;;;34.13;18.00;;;;;;;8.18;100.00;100270.53;4162687;28;21668;-68
2022/10/31 03:07:08;;;;;;;38.20;20.00;;;;;;;8.18;100.00;100270.53;4183170;28;20319;-67
2022/10/31 03:09:57;;;;;;;42.77;20.47;;;;;;;8.18;100.00;100273.19;4160936;28;20744;-66
2022/10/31 03:12:53;;;;;;;37.97;19.63;;;;;;;8.24;100.00;100281.44;4164612;28;23506;-69
2022/10/31 03:15:27;;;;;;;54.10;23.30;;;;;;;8.23;100.00;100281.56;4165849;28;20238;-67
2022/10/31 03:18:00;;;;;;;50.87;24.67;;;;;;;8.24;100.00;100281.44;4172039;28;20301;-68
2022/10/31 03:20:34;;;;;;;38.93;20.37;;;;;;;8.27;100.00;100285.63;4174577;28;20404;-65
2022/10/31 03:23:02;;;;;;;40.97;21.07;;;;;;;8.29;100.00;100285.47;4165121;28;20236;-68
2022/10/31 03:25:29;;;;;;;38.67;19.83;;;;;;;8.32;100.00;100293.19;4168399;28;23384;-66
2022/10/31 03:27:56;;;;;;;39.03;20.43;;;;;;;8.34;100.00;100302.69;4169049;28;21124;-66
2022/10/31 03:30:23;;;;;;;40.33;20.60;;;;;;;8.33;100.00;100298.34;4151558;28;20423;-66
2022/10/31 03:32:52;;;;;;;48.17;26.10;;;;;;;8.37;100.00;100302.41;4179789;28;20283;-67
2022/10/31 03:35:20;;;;;;;46.13;21.83;;;;;;;8.38;100.00;100306.75;4181270;28;20239;-66
2022/10/31 03:37:48;;;;;;;39.83;20.20;;;;;;;8.44;100.00;100294.78;4170646;28;20230;-66
2022/10/31 03:40:16;;;;;;;35.30;19.13;;;;;;;8.45;100.00;100299.09;4173192;28;20305;-67
2022/10/31 03:42:46;;;;;;;44.53;21.93;;;;;;;8.39;100.00;100295.16;4170957;28;20378;-67
2022/10/31 03:45:25;;;;;;;39.60;19.70;;;;;;;8.37;100.00;100297.09;4169322;28;20234;-69
2022/10/31 03:47:53;;;;;;;38.13;21.07;;;;;;;8.40;100.00;100307.47;4190579;28;20254;-67
2022/10/31 03:50:21;;;;;;;41.90;20.20;;;;;;;8.37;100.00;100297.09;4163741;28;20239;-65
2022/10/31 03:52:53;;;;;;;39.80;18.73;;;;;;;8.34;100.00;100293.91;4166255;28;23687;-68
2022/10/31 03:55:27;;;;;;;40.73;21.37;;;;;;;8.32;100.00;100295.84;4170673;28;20297;-67
2022/10/31 03:58:03;;;;;;;34.90;18.87;;;;;;;8.34;100.00;100297.38;4153668;28;21173;-69
2022/10/31 04:00:31;;;;;;;41.43;19.60;;;;;;;8.30;100.00;100295.97;4179878;28;20241;-67
2022/10/31 04:03:11;;;;;;;42.27;19.87;;;;;;;8.30;100.00;100295.13;4172104;28;20411;-66
2022/10/31 04:05:38;;;;;;;40.23;20.87;;;;;;;8.28;100.00;100303.22;4171560;28;20230;-68
2022/10/31 04:08:08;;;;;;;39.33;20.97;;;;;;;8.28;100.00;100297.91;4167062;28;23988;-67
2022/10/31 04:10:36;;;;;;;36.43;19.10;;;;;;;8.24;100.00;100301.78;4177901;28;20247;-67
2022/10/31 04:13:07;;;;;;;35.83;19.10;;;;;;;8.21;100.00;100302.91;4178609;28;21703;-66
2022/10/31 04:15:34;;;;;;;39.33;20.17;;;;;;;8.16;100.00;100299.81;4171656;28;20331;-67
2022/10/31 04:18:04;;;;;;;44.03;22.63;;;;;;;8.13;100.00;100294.78;4168987;28;21908;-67
2022/10/31 04:20:36;;;;;;;41.47;21.67;;;;;;;8.14;100.00;100295.63;4181998;28;22262;-66
2022/10/31 04:23:03;;;;;;;46.80;23.30;;;;;;;8.09;100.00;100293.38;4172882;28;20230;-67
2022/10/31 04:25:29;;;;;;;46.07;22.67;;;;;;;8.09;100.00;100305.78;4180724;28;21129;-68
2022/10/31 04:27:56;;;;;;;40.47;22.33;;;;;;;8.04;100.00;100301.72;4166906;28;22869;-65
2022/10/31 04:30:23;;;;;;;42.13;22.83;;;;;;;8.03;100.00;100309.81;4165822;28;20479;-68
2022/10/31 04:32:50;;;;;;;48.67;22.40;;;;;;;8.02;100.00;100303.66;4166258;28;25749;-67
2022/10/31 04:35:16;;;;;;;49.97;27.03;;;;;;;8.01;100.00;100307.28;4165324;28;26069;-66
2022/10/31 04:37:43;;;;;;;44.90;23.47;;;;;;;8.00;100.00;100302.09;4167802;28;20244;-66
2022/10/31 04:40:10;;;;;;;48.93;25.20;;;;;;;8.06;100.00;100303.41;4168483;28;20232;-66
2022/10/31 04:42:37;;;;;;;52.60;25.43;;;;;;;8.00;100.00;100302.09;4171020;28;20509;-66
2022/10/31 04:45:04;;;;;;;48.17;25.10;;;;;;;8.02;100.00;100301.00;4172309;28;21535;-66
2022/10/31 04:47:32;;;;;;;49.23;25.47;;;;;;;8.08;100.00;100302.28;4170111;28;20333;-66
2022/10/31 04:49:58;;;;;;;51.73;24.17;;;;;;;8.08;100.00;100312.03;4167246;28;21166;-67
2022/10/31 04:52:25;;;;;;;56.00;26.87;;;;;;;8.03;100.00;100310.63;4169646;28;20230;-68
2022/10/31 04:54:51;;;;;;;49.93;25.97;;;;;;;8.04;100.00;100314.13;4165655;28;21317;-66
2022/10/31 04:57:18;;;;;;;52.30;26.63;;;;;;;7.98;100.00;100310.19;4168543;28;20235;-65
2022/10/31 04:59:44;;;;;;;57.30;26.17;;;;;;;7.96;100.00;100316.56;4169988;28;20520;-68
2022/10/31 05:02:11;;;;;;;62.93;27.77;;;;;;;7.97;100.00;100315.63;4163837;28;21105;-66
2022/10/31 05:04:38;;;;;;;53.20;26.40;;;;;;;7.99;100.00;100322.47;4163867;28;20297;-66
2022/10/31 05:07:04;;;;;;;59.47;27.70;;;;;;;7.99;100.00;100314.53;4166642;28;20324;-68
2022/10/31 05:09:31;;;;;;;50.97;25.90;;;;;;;7.96;100.00;100322.75;4171024;28;20334;-66
2022/10/31 05:11:57;;;;;;;47.93;25.60;;;;;;;7.97;100.00;100316.47;4181092;28;20245;-66
2022/10/31 05:14:23;;;;;;;50.47;26.40;;;;;;;8.01;100.00;100315.22;4166465;28;20407;-66
2022/10/31 05:16:51;;;;;;;54.23;25.90;;;;;;;7.98;100.00;100320.81;4161460;28;21159;-66
2022/10/31 05:19:17;;;;;;;57.07;28.80;;;;;;;7.98;100.00;100322.59;4173010;28;20246;-67
2022/10/31 05:21:44;;;;;;;49.47;25.90;;;;;;;8.01;100.00;100315.22;4168830;28;20242;-65
2022/10/31 05:24:10;;;;;;;46.87;25.50;;;;;;;8.09;100.00;100322.50;4163162;28;24065;-67
2022/10/31 05:26:37;;;;;;;45.37;23.73;;;;;;;8.11;100.00;100322.41;4168739;28;20227;-66
2022/10/31 05:29:04;;;;;;;47.47;24.07;;;;;;;8.14;100.00;100320.31;4164342;28;20243;-68
2022/10/31 05:31:30;;;;;;;51.87;24.53;;;;;;;8.13;100.00;100326.59;4167196;28;20381;-66
2022/10/31 05:33:56;;;;;;;48.13;24.73;;;;;;;8.15;100.00;100329.13;4162808;28;20239;-67
2022/10/31 05:36:23;;;;;;;44.50;24.00;;;;;;;8.16;100.00;100330.78;4179133;28;20698;-68
2022/10/31 05:38:50;;;;;;;47.60;24.13;;;;;;;8.15;100.00;100329.13;4167481;28;20231;-68
2022/10/31 05:41:17;;;;;;;44.60;23.67;;;;;;;8.20;100.00;100337.50;4168794;28;23051;-66
2022/10/31 05:43:43;;;;;;;49.27;24.23;;;;;;;8.17;100.00;100332.44;4181429;28;25907;-66
2022/10/31 05:46:10;;;;;;;44.87;23.87;;;;;;;8.25;100.00;100336.13;4211510;28;21249;-66
2022/10/31 05:48:36;;;;;;;38.77;22.87;;;;;;;8.29;100.00;100319.94;4191701;28;20242;-67
2022/10/31 05:51:03;;;;;;;41.30;22.50;;;;;;;8.32;100.00;100320.53;4174739;28;20278;-67
2022/10/31 05:53:29;;;;;;;46.83;24.27;;;;;;;8.29;100.00;100326.13;4215066;28;20233;-69
2022/10/31 05:55:56;;;;;;;49.73;23.37;;;;;;;8.27;100.00;100333.34;4206563;28;20320;-68
2022/10/31 05:58:23;;;;;;;50.20;23.70;;;;;;;8.29;100.00;100331.41;4222456;28;20239;-70
2022/10/31 06:00:50;;;;;;;46.00;22.80;;;;;;;8.36;100.00;100332.56;4203485;28;21862;-67
2022/10/31 06:03:17;;;;;;;41.33;22.27;;;;;;;8.41;100.00;100335.69;4178313;28;20592;-68
2022/10/31 06:05:44;;;;;;;41.13;21.97;;;;;;;8.43;100.00;100328.44;4175127;28;20267;-67
2022/10/31 06:08:17;;;;;;;39.93;23.17;;;;;;;8.43;100.00;100328.44;4169256;28;20238;-69
2022/10/31 06:10:44;;;;;;;42.07;22.37;;;;;;;8.56;100.00;100338.78;4177613;28;20294;-67
2022/10/31 06:13:10;;;;;;;42.57;21.97;;;;;;;8.69;100.00;100337.75;4160459;28;20416;-66
2022/10/31 06:15:37;;;;;;;43.73;23.27;;;;;;;8.77;100.00;100340.53;4186696;28;20242;-65
2022/10/31 06:18:05;;;;;;;42.70;22.83;;;;;;;8.88;100.00;100346.56;4172734;28;20249;-64
2022/10/31 06:20:32;;;;;;;43.17;23.37;;;;;;;8.97;100.00;100352.88;4164257;28;20301;-70
2022/10/31 06:22:58;;;;;;;42.23;22.27;;;;;;;9.03;100.00;100354.97;4176811;28;23979;-69
2022/10/31 06:25:26;;;;;;;38.27;20.70;;;;;;;9.06;100.00;100357.38;4175220;28;20651;-70
2022/10/31 06:27:52;;;;;;;39.07;20.43;;;;;;;9.09;100.00;100350.94;4171932;28;20240;-69
2022/10/31 06:30:19;;;;;;;38.43;19.87;;;;;;;9.17;100.00;100348.44;4161233;28;20252;-73
2022/10/31 06:32:46;;;;;;;35.03;19.77;;;;;;;9.14;100.00;100351.38;4189916;28;22748;-71
2022/10/31 06:35:12;;;;;;;32.93;18.47;;;;;;;9.27;100.00;100354.59;4172649;28;20678;-66
2022/10/31 06:37:39;;;;;;;29.40;17.77;;;;;;;9.27;100.00;100357.25;4171760;28;20238;-69
2022/10/31 06:40:06;;;;;;;36.67;18.20;;;;;;;9.43;100.00;100363.81;4180686;28;23860;-68
2022/10/31 06:42:32;;;;;;;31.87;18.37;;;;;;;9.47;100.00;100366.06;4174404;28;20238;-69
2022/10/31 06:44:59;;;;;;;33.67;18.30;;;;;;;9.44;100.00;100360.22;4180944;28;21983;-65
2022/10/31 06:47:25;;;;;;;37.00;19.50;;;;;;;9.48;100.00;100366.88;4172014;28;20661;-65
2022/10/31 06:49:52;;;;;;;34.23;19.20;;;;;;;9.52;100.00;100365.63;4168593;28;21219;-64
2022/10/31 06:52:18;;;;;;;44.13;20.00;;;;;;;9.60;100.00;100360.47;4164662;28;20602;-69
2022/10/31 06:54:45;;;;;;;35.97;19.30;;;;;;;9.72;100.00;100364.66;4185655;28;20339;-68
2022/10/31 06:57:11;;;;;;;35.37;19.40;;;;;;;9.79;100.00;100364.09;4178406;28;26444;-65
2022/10/31 06:59:38;;;;;;;35.17;18.00;;;;;;;9.88;100.00;100368.53;4192285;28;20254;-66
2022/10/31 07:02:05;;;;;;;34.73;18.80;;;;;;;9.94;100.00;100363.50;4177753;28;20306;-65
2022/10/31 07:04:31;;;;;;;32.20;18.50;;;;;;;10.06;100.00;100366.84;4204390;28;26298;-66
2022/10/31 07:07:01;;;;;;;32.93;18.27;;;;;;;10.27;100.00;100365.81;4177544;28;25353;-65
2022/10/31 07:09:28;;;;;;;33.10;18.90;;;;;;;10.23;100.00;100364.41;4186008;28;20346;-67
2022/10/31 07:11:54;;;;;;;36.60;19.07;;;;;;;10.31;100.00;100365.41;4185113;28;20235;-68
2022/10/31 07:14:21;;;;;;;33.27;17.93;;;;;;;10.46;100.00;100367.59;4168658;28;20234;-65
2022/10/31 07:16:50;;;;;;;32.17;17.43;;;;;;;10.53;100.00;100376.66;4183507;28;20403;-66
2022/10/31 07:19:17;;;;;;;33.57;17.60;;;;;;;10.66;100.00;100373.69;4196762;28;20340;-68
2022/10/31 07:21:43;;;;;;;33.00;17.37;;;;;;;10.76;100.00;100375.31;4207357;28;20435;-67
2022/10/31 07:24:10;;;;;;;30.67;16.83;;;;;;;10.88;100.00;100373.28;4177778;28;20264;-65
2022/10/31 07:26:36;;;;;;;31.33;17.00;;;;;;;10.99;100.00;100370.41;4186126;28;20231;-67
2022/10/31 07:29:03;;;;;;;25.13;14.60;;;;;;;11.11;100.00;100378.19;4178119;28;20254;-66
2022/10/31 07:31:29;;;;;;;27.37;14.67;;;;;;;11.24;100.00;100376.03;4178838;28;20242;-67
2022/10/31 07:33:56;;;;;;;34.47;14.37;;;;;;;11.40;100.00;100378.84;4169794;28;26378;-68
2022/10/31 07:36:22;;;;;;;24.47;14.33;;;;;;;11.48;100.00;100370.09;4170379;28;26481;-66
2022/10/31 07:38:50;;;;;;;27.17;14.67;;;;;;;11.52;100.00;100376.78;4188735;28;25932;-66
2022/10/31 07:41:16;;;;;;;23.53;13.00;;;;;;;11.64;100.00;100376.56;4182576;28;20233;-65
2022/10/31 07:43:43;;;;;;;23.07;12.43;;;;;;;11.61;100.00;100380.34;4206061;28;20324;-65
2022/10/31 07:46:11;;;;;;;25.77;12.77;;;;;;;11.59;100.00;100377.03;4179441;28;20349;-65
2022/10/31 07:48:37;;;;;;;24.13;13.07;;;;;;;11.75;100.00;100377.16;4169064;28;20250;-70
2022/10/31 07:51:04;;;;;;;25.13;12.80;;;;;;;11.92;100.00;100383.50;4203201;28;20249;-68
2022/10/31 07:53:31;;;;;;;29.53;12.47;;;;;;;12.37;100.00;100392.28;4229792;28;21192;-66
2022/10/31 07:55:57;;;;;;;21.90;12.50;;;;;;;13.12;95.85;100392.47;4189186;28;21056;-65
2022/10/31 07:58:25;;;;;;;26.47;11.00;;;;;;;14.57;86.25;100409.75;4193582;28;20522;-72
2022/10/31 08:00:52;;;;;;;16.73;9.57;;;;;;;17.76;72.84;100421.34;4189567;28;22062;-74
2022/10/31 08:03:19;;;;;;;21.90;10.70;;;;;;;21.00;55.40;100444.28;4208487;28;20252;-73
2022/10/31 08:05:46;;;;;;;18.57;10.90;;;;;;;23.86;44.04;100459.09;4207104;28;21268;-69
2022/10/31 08:08:16;;;;;;;18.73;9.23;;;;;;;24.31;40.26;100464.84;4227461;28;21573;-67
2022/10/31 08:10:43;;;;;;;19.47;8.77;;;;;;;24.73;38.65;100478.38;4252469;28;20754;-71
2022/10/31 08:13:12;;;;;;;17.77;8.73;;;;;;;26.04;35.34;100475.06;4198314;28;23519;-73
2022/10/31 08:15:41;;;;;;;17.60;8.80;;;;;;;26.38;33.76;100477.78;4207830;28;21246;-69
2022/10/31 08:18:14;;;;;;;18.60;7.97;;;;;;;28.09;30.15;100482.41;4198904;28;20493;-72
2022/10/31 08:20:44;;;;;;;18.57;8.17;;;;;;;28.27;29.13;100483.94;4188362;28;20769;-69
2022/10/31 08:23:11;;;;;;;18.50;8.57;;;;;;;28.65;29.09;100484.78;4196366;28;20237;-58
2022/10/31 08:25:38;;;;;;;16.23;9.43;;;;;;;27.88;29.13;100481.41;4236252;28;20234;-67
2022/10/31 08:28:06;;;;;;;15.53;8.17;;;;;;;28.20;29.35;100481.41;4208593;28;20447;-61
2022/10/31 08:30:35;;;;;;;15.70;8.67;;;;;;;28.29;29.03;100489.97;4200178;28;23205;-65
2022/10/31 08:33:08;;;;;;;16.03;8.80;;;;;;;28.30;29.35;100488.88;4220054;28;20246;-75
2022/10/31 08:35:35;;;;;;;16.23;9.07;;;;;;;27.79;29.02;100487.31;4215766;28;21262;-70
2022/10/31 08:38:02;;;;;;;20.30;9.63;;;;;;;28.04;29.29;100480.47;4173906;28;20400;-70
2022/10/31 08:40:31;;;;;;;13.30;8.48;;;;;;;28.54;28.33;100492.94;4223198;28;20384;-70
2022/10/31 08:43:02;;;;;;;15.90;8.87;;;;;;;28.98;27.75;100498.13;4205099;28;23154;-74
2022/10/31 08:45:30;;;;;;;17.43;9.53;;;;;;;28.52;28.08;100500.59;4218988;28;20230;-69
2022/10/31 08:48:01;;;;;;;16.02;8.98;;;;;;;28.42;27.73;100498.59;4186286;28;20317;-71
2022/10/31 08:50:29;;;;;;;18.93;9.57;;;;;;;27.58;29.16;100491.75;4201227;28;21326;-70
2022/10/31 08:53:03;;;;;;;17.50;9.57;;;;;;;27.60;29.46;100496.13;4199202;28;22915;-70
2022/10/31 08:55:35;;;;;;;16.73;9.35;;;;;;;27.85;28.92;100498.34;4192313;28;22289;-71
2022/10/31 08:58:04;;;;;;;19.20;9.93;;;;;;;27.11;30.12;100491.41;4216198;28;20601;-70
2022/10/31 09:00:31;;;;;;;18.60;9.77;;;;;;;27.32;29.37;100487.06;4205235;28;20234;-70
2022/10/31 09:03:00;;;;;;;21.57;10.30;;;;;;;26.19;31.50;100481.84;4192924;28;20355;-70
2022/10/31 09:05:27;;;;;;;16.60;9.50;;;;;;;23.32;36.55;100465.25;4193540;28;20243;-73
2022/10/31 09:08:01;;;;;;;25.93;11.77;;;;;;;21.26;41.97;100447.94;4218620;28;20242;-68
2022/10/31 09:10:29;;;;;;;19.20;11.27;;;;;;;19.99;47.35;100442.72;4201342;28;25403;-69
2022/10/31 09:13:08;;;;;;;19.67;10.67;;;;;;;19.33;50.54;100437.97;4174823;28;22924;-72
2022/10/31 09:15:36;;;;;;;20.60;11.40;;;;;;;18.67;52.28;100429.53;4224933;28;20448;-69
2022/10/31 09:18:03;;;;;;;17.07;10.63;;;;;;;18.21;55.50;100427.34;4190415;28;20249;-71
2022/10/31 09:20:31;;;;;;;19.17;11.33;;;;;;;17.72;58.11;100421.72;4198462;28;20256;-70
2022/10/31 09:22:59;;;;;;;20.23;12.03;;;;;;;17.59;59.56;100423.44;4199334;28;20680;-72
2022/10/31 09:25:27;;;;;;;17.17;11.47;;;;;;;17.38;60.39;100424.25;4201051;28;20454;-68
2022/10/31 09:28:00;;;;;;;27.33;12.20;;;;;;;17.35;61.53;100414.72;4201644;28;20237;-69
2022/10/31 09:30:30;;;;;;;22.57;11.73;;;;;;;17.18;63.09;100415.94;4194192;28;20730;-70
2022/10/31 09:32:57;;;;;;;24.33;12.13;;;;;;;17.39;62.46;100417.84;4189397;28;20237;-71
2022/10/31 09:35:25;;;;;;;21.43;12.50;;;;;;;17.36;62.30;100420.91;4213011;28;20229;-74
2022/10/31 09:37:55;;;;;;;23.37;11.47;;;;;;;17.77;60.49;100421.16;4226533;28;20265;-75
2022/10/31 09:40:41;;;;;;;25.67;12.23;;;;;;;17.37;60.89;100419.88;4212517;28;20236;-70
2022/10/31 09:43:11;;;;;;;24.10;11.63;;;;;;;17.32;61.10;100419.63;4207329;28;20508;-66
2022/10/31 09:45:46;;;;;;;20.83;11.10;;;;;;;17.38;61.01;100424.25;4235010;28;20248;-69
2022/10/31 09:48:31;;;;;;;23.27;12.03;;;;;;;17.18;62.54;100422.16;4210506;28;20272;-70
2022/10/31 09:50:59;;;;;;;21.37;12.17;;;;;;;17.03;62.13;100421.34;4210273;28;20244;-71
2022/10/31 09:53:30;;;;;;;22.40;12.30;;;;;;;17.13;61.94;100424.56;4197634;28;20294;-69
2022/10/31 09:55:57;;;;;;;20.10;11.33;;;;;;;17.16;62.13;100426.91;4185197;28;22010;-72
2022/10/31 09:58:26;;;;;;;22.03;11.57;;;;;;;17.46;60.32;100426.81;4190296;28;20277;-70
2022/10/31 10:00:55;;;;;;;24.67;11.47;;;;;;;17.05;62.10;100422.84;4178624;28;21309;-72
2022/10/31 10:03:41;;;;;;;22.80;11.40;;;;;;;16.86;61.83;100423.41;4169359;28;20234;-67
2022/10/31 10:06:18;;;;;;;21.27;11.60;;;;;;;17.14;61.27;100418.19;4197088;28;20353;-48
2022/10/31 10:08:45;;;;;;;25.20;12.47;;;;;;;17.21;61.31;100421.78;4216981;28;20247;-69
2022/10/31 10:11:37;;;;;;;24.20;12.83;;;;;;;17.07;60.55;100414.59;4206354;28;20419;-67
2022/10/31 10:14:33;;;;;;;22.83;12.27;;;;;;;17.06;63.42;100412.91;4181742;28;22460;-67
2022/10/31 10:17:15;;;;;;;30.10;13.00;;;;;;;17.18;62.19;100413.25;4200776;28;25102;-66
2022/10/31 10:20:21;;;;;;;23.97;12.90;;;;;;;16.96;61.35;100412.38;4234402;28;20240;-43
2022/10/31 10:22:54;;;;;;;21.20;12.60;;;;;;;16.85;63.83;100411.81;4201920;28;20239;-69
2022/10/31 10:25:28;;;;;;;25.63;13.50;;;;;;;16.88;62.99;100405.25;4211020;28;20235;-68
2022/10/31 10:28:22;;;;;;;34.20;15.27;;;;;;;16.79;64.69;100407.19;4210702;28;20264;-68
2022/10/31 10:31:11;;;;;;;26.63;14.10;;;;;;;16.91;65.00;100402.19;4240324;28;20312;-67
2022/10/31 10:33:54;;;;;;;33.50;14.00;;;;;;;17.00;63.26;100408.28;4228881;28;22155;-68
2022/10/31 10:36:49;;;;;;;25.97;14.43;;;;;;;16.94;63.92;100406.34;4198232;28;20234;-66
2022/10/31 10:39:21;;;;;;;26.90;14.40;;;;;;;17.03;64.84;100400.69;4231166;28;26261;-66
2022/10/31 10:47:40;;;;;;;34.53;15.20;;;;;;;17.20;64.38;100400.47;4216869;28;20248;-67
2022/10/31 10:50:16;;;;;;;25.93;14.87;;;;;;;17.27;64.64;100402.19;4223637;28;20240;-67
2022/10/31 10:53:32;;;;;;;30.97;15.10;;;;;;;17.44;63.17;100405.50;4244390;28;21967;-69
2022/10/31 10:56:10;;;;;;;35.67;15.43;;;;;;;17.51;63.16;100402.84;4233642;28;21744;-67
2022/10/31 10:58:39;;;;;;;34.57;16.57;;;;;;;17.44;64.72;100393.88;4225260;28;20234;-68
2022/10/31 11:01:12;;;;;;;32.30;17.17;;;;;;;17.42;64.71;100401.31;4209045;28;20225;-68
2022/10/31 11:03:39;;;;;;;32.67;17.60;;;;;;;17.46;63.53;100399.91;4218844;28;21139;-66
2022/10/31 11:06:16;;;;;;;34.43;16.57;;;;;;;17.43;64.73;100394.91;4212317;28;20395;-67
2022/10/31 11:08:43;;;;;;;35.30;18.83;;;;;;;17.05;67.20;100390.56;4229908;28;21990;-66
2022/10/31 11:11:25;;;;;;;38.37;19.10;;;;;;;16.75;69.80;100386.22;4243372;28;20313;-66
2022/10/31 11:14:00;;;;;;;35.67;19.77;;;;;;;16.87;70.13;100382.88;4233675;28;20541;-69
2022/10/31 11:16:29;;;;;;;33.10;18.90;;;;;;;16.90;70.28;100392.44;4222574;28;20267;-68
2022/10/31 11:19:16;;;;;;;33.67;19.47;;;;;;;17.05;69.09;100398.63;4282122;28;20233;-66
2022/10/31 11:21:44;;;;;;;37.00;19.17;;;;;;;17.13;68.88;100395.00;4184458;28;20911;-66
2022/10/31 11:24:25;;;;;;;35.80;19.47;;;;;;;16.98;69.66;100394.22;4190674;28;25373;-66
2022/10/31 11:27:05;;;;;;;34.43;19.53;;;;;;;16.74;70.64;100389.91;4177585;28;20250;-68
2022/10/31 11:29:31;;;;;;;33.53;19.63;;;;;;;16.88;70.96;100389.13;4198389;28;20287;-66